Time;durP1;ratioP1;P1;durP2;ratioP2;P2;SDS_P1;SDS_P2;PMS_P1;PMS_P2;Temp;Humidity;BMP_temperature;BMP_pressure;BME280_temperature;BME280_humidity;BME280_pressure;Samples;Min_cycle;Max_cycle;Signal;HPM_P1;HPM_P2
2022/02/04 00:22:19;;;;;;;40.40;19.75;;;6.90;99.90;;;;;;4934203;29;20558;-79
2022/02/04 00:24:19;;;;;;;39.65;21.30;;;6.90;99.90;;;;;;4933025;29;20547;-79
2022/02/04 00:26:51;;;;;;;45.53;22.70;;;6.90;99.90;;;;;;4936893;29;20015;-79
2022/02/04 00:32:07;;;;;;;40.13;19.85;;;6.90;99.90;;;;;;4939489;29;20786;-79
2022/02/04 00:34:42;;;;;;;38.08;19.33;;;6.90;99.90;;;;;;4934879;29;20103;-79
2022/02/04 00:37:23;;;;;;;36.45;18.92;;;7.00;99.90;;;;;;4937300;29;20047;-79
2022/02/04 00:39:56;;;;;;;36.38;18.88;;;7.00;99.90;;;;;;4937193;29;20031;-78
2022/02/04 00:42:22;;;;;;;36.88;18.27;;;6.90;99.90;;;;;;4936579;29;20076;-78
2022/02/04 00:44:50;;;;;;;35.80;18.45;;;6.90;99.90;;;;;;4941290;29;20032;-79
2022/02/04 00:47:21;;;;;;;35.17;18.17;;;6.90;99.90;;;;;;4932605;29;20038;-79
2022/02/04 00:53:01;;;;;;;36.13;18.05;;;6.90;99.90;;;;;;4934279;29;20075;-79
2022/02/04 00:55:33;;;;;;;32.90;17.65;;;6.80;99.90;;;;;;4938838;29;20039;-79
2022/02/04 01:27:59;;;;;;;34.08;17.52;;;6.50;99.90;;;;;;4935031;29;20115;-78
2022/02/04 01:30:31;;;;;;;35.60;18.25;;;6.60;99.90;;;;;;4938029;29;20484;-78
2022/02/04 01:32:56;;;;;;;33.58;16.83;;;6.70;99.90;;;;;;4938101;29;21581;-78
2022/02/04 01:35:22;;;;;;;36.95;17.48;;;6.70;99.90;;;;;;4939170;29;20028;-78
2022/02/04 01:37:48;;;;;;;37.28;18.80;;;6.70;99.90;;;;;;4939663;29;20441;-78
2022/02/04 01:40:14;;;;;;;39.67;18.90;;;6.70;99.90;;;;;;4929849;29;20035;-78
2022/02/04 01:42:40;;;;;;;38.38;18.25;;;6.60;99.90;;;;;;4938079;29;20482;-78
2022/02/04 01:45:06;;;;;;;36.42;17.90;;;6.50;99.90;;;;;;4937814;29;20061;-78
2022/02/04 01:47:32;;;;;;;36.50;17.30;;;6.60;99.90;;;;;;4939132;29;20033;-78
2022/02/04 01:49:58;;;;;;;33.67;17.63;;;6.50;99.90;;;;;;4936465;29;20040;-78
2022/02/04 01:52:24;;;;;;;35.90;17.15;;;6.60;99.90;;;;;;4940168;29;20054;-78
2022/02/04 01:54:50;;;;;;;33.72;17.77;;;6.60;99.90;;;;;;4932895;29;20075;-78
2022/02/04 01:57:16;;;;;;;36.20;18.00;;;6.70;99.90;;;;;;4931393;29;20027;-78
2022/02/04 01:59:41;;;;;;;37.03;18.33;;;6.70;99.90;;;;;;4938763;29;20100;-79
2022/02/04 02:02:07;;;;;;;37.60;18.33;;;6.60;99.90;;;;;;4931279;29;20475;-79
2022/02/04 02:04:33;;;;;;;36.88;18.33;;;6.70;99.90;;;;;;4936261;29;20412;-78
2022/02/04 02:07:03;;;;;;;37.00;19.30;;;6.70;99.90;;;;;;4937961;29;20558;-79
2022/02/04 02:10:16;;;;;;;36.47;18.52;;;6.70;99.90;;;;;;4932688;29;20060;-78
2022/02/04 02:12:17;;;;;;;39.30;19.73;;;6.70;99.90;;;;;;4928513;29;20071;-79
2022/02/04 02:14:43;;;;;;;37.28;17.90;;;6.80;99.90;;;;;;4933500;29;20027;-79
2022/02/04 02:52:38;;;;;;;43.40;21.30;;;6.90;99.90;;;;;;4931952;29;20079;-78
2022/02/04 03:02:55;;;;;;;41.90;21.23;;;7.00;99.90;;;;;;4931716;29;20440;-79
2022/02/04 03:05:21;;;;;;;42.17;20.13;;;7.00;99.90;;;;;;4938519;29;20028;-79
2022/02/04 03:07:46;;;;;;;42.30;21.63;;;7.10;99.90;;;;;;4936283;29;20114;-79
2022/02/04 03:10:12;;;;;;;43.17;21.98;;;7.10;99.90;;;;;;4945377;29;20090;-79
2022/02/04 03:12:41;;;;;;;41.85;22.42;;;7.10;99.90;;;;;;4956545;29;20106;-79
2022/02/04 03:15:08;;;;;;;43.60;21.55;;;7.10;99.90;;;;;;4958045;28;20027;-79
2022/02/04 03:17:34;;;;;;;43.17;22.38;;;7.10;99.90;;;;;;4954053;29;20027;-79
2022/02/04 03:20:05;;;;;;;40.97;21.00;;;7.20;99.90;;;;;;4956460;28;20075;-79
2022/02/04 03:22:30;;;;;;;41.70;21.48;;;7.20;99.90;;;;;;4943208;29;20035;-79
2022/02/04 03:25:00;;;;;;;43.20;22.65;;;7.20;99.90;;;;;;4956368;29;20036;-79
2022/02/04 03:27:33;;;;;;;39.72;21.20;;;7.20;99.90;;;;;;4955894;28;20042;-79
2022/02/04 03:30:15;;;;;;;43.13;23.05;;;7.20;99.90;;;;;;4949094;29;20035;-78
2022/02/04 03:32:46;;;;;;;45.15;23.00;;;7.20;99.90;;;;;;4953262;28;20039;-78
2022/02/04 03:35:18;;;;;;;44.25;23.60;;;7.20;99.90;;;;;;4951687;29;20040;-79
2022/02/04 03:37:43;;;;;;;40.80;22.02;;;7.20;99.90;;;;;;4950447;29;20407;-79
2022/02/04 03:40:09;;;;;;;43.13;22.83;;;7.20;99.90;;;;;;4952625;28;20027;-79
2022/02/04 03:42:35;;;;;;;41.38;21.65;;;7.30;99.90;;;;;;4949396;29;20387;-79
2022/02/04 03:45:01;;;;;;;40.83;21.38;;;7.20;99.90;;;;;;4953402;28;20082;-78
2022/02/04 03:47:27;;;;;;;44.33;21.85;;;7.20;99.90;;;;;;4954152;28;20029;-82
2022/02/04 03:49:52;;;;;;;41.85;21.55;;;7.30;99.90;;;;;;4952769;28;20075;-78
2022/02/04 03:52:18;;;;;;;43.08;22.40;;;7.20;99.90;;;;;;4924971;29;20055;-79
2022/02/04 03:54:44;;;;;;;42.72;21.65;;;7.20;99.90;;;;;;4960076;28;20059;-78
2022/02/04 03:57:09;;;;;;;39.15;21.05;;;7.30;99.90;;;;;;4949170;29;20031;-79
2022/02/04 03:59:35;;;;;;;36.45;20.27;;;7.30;99.90;;;;;;4942161;29;20491;-78
2022/02/04 04:02:02;;;;;;;40.53;21.00;;;7.30;99.90;;;;;;4953950;28;20035;-79
2022/02/04 04:04:32;;;;;;;39.22;21.33;;;7.30;99.90;;;;;;4949463;28;20035;-79
2022/02/04 04:06:58;;;;;;;39.78;21.08;;;7.30;99.90;;;;;;4959663;28;20031;-79
2022/02/04 04:09:24;;;;;;;38.40;21.33;;;7.30;99.90;;;;;;4957234;28;20914;-79
2022/02/04 04:11:50;;;;;;;35.95;20.42;;;7.30;99.90;;;;;;4949783;28;20401;-78
2022/02/04 04:14:18;;;;;;;42.28;21.10;;;7.30;99.90;;;;;;4941875;29;20055;-79
2022/02/04 04:16:44;;;;;;;40.10;21.85;;;7.30;99.90;;;;;;4938924;29;20096;-79
2022/02/04 04:19:09;;;;;;;37.42;20.02;;;7.40;99.90;;;;;;4934301;29;20078;-79
2022/02/04 04:21:35;;;;;;;36.92;19.80;;;7.40;99.90;;;;;;4930832;29;20492;-79
2022/02/04 04:24:01;;;;;;;36.90;20.25;;;7.40;99.90;;;;;;4941316;29;20028;-79
2022/02/04 04:26:27;;;;;;;37.85;19.67;;;7.30;99.90;;;;;;4942356;29;20039;-79
2022/02/04 04:28:52;;;;;;;35.40;20.67;;;7.40;99.90;;;;;;4940769;29;20055;-78
2022/02/04 04:31:21;;;;;;;38.17;19.63;;;7.40;99.90;;;;;;4934785;29;20031;-79
2022/02/04 04:33:47;;;;;;;40.67;22.08;;;7.40;99.90;;;;;;4938965;29;20072;-79
2022/02/04 04:36:12;;;;;;;40.00;21.65;;;7.40;99.90;;;;;;4935841;29;20028;-78
2022/02/04 05:29:40;;;;;;;32.13;18.10;;;7.60;99.90;;;;;;4974983;28;20027;-77
2022/02/04 05:32:06;;;;;;;33.08;18.48;;;7.60;99.90;;;;;;4960488;28;20568;-77
2022/02/04 05:34:33;;;;;;;29.40;19.00;;;7.60;99.90;;;;;;4955202;28;20035;-77
2022/02/04 05:37:06;;;;;;;29.90;19.08;;;7.60;99.90;;;;;;4977002;28;20030;-77
2022/02/04 05:39:42;;;;;;;28.75;18.13;;;7.60;99.90;;;;;;4961206;28;20031;-79
2022/02/04 05:42:12;;;;;;;34.75;18.95;;;7.60;99.90;;;;;;4967091;28;20055;-79
2022/02/04 05:44:41;;;;;;;31.05;17.52;;;7.60;99.90;;;;;;4976007;28;20030;-77
2022/02/04 05:47:15;;;;;;;30.50;17.80;;;7.60;99.90;;;;;;4963433;28;20054;-80
2022/02/04 05:49:48;;;;;;;31.75;18.30;;;7.60;99.90;;;;;;4980042;28;20022;-77
2022/02/04 05:52:25;;;;;;;27.98;17.15;;;7.60;99.90;;;;;;4972988;28;20089;-77
2022/02/04 05:57:23;;;;;;;26.83;15.90;;;7.70;99.90;;;;;;4979692;28;20082;-77
2022/02/04 06:02:30;;;;;;;28.17;16.65;;;7.70;99.90;;;;;;4980290;28;20077;-77
2022/02/04 06:05:03;;;;;;;29.00;15.90;;;7.70;99.90;;;;;;4950476;28;20034;-77
2022/02/04 06:08:19;;;;;;;25.65;16.40;;;7.70;99.90;;;;;;4976851;28;20034;-77
2022/02/04 06:23:18;;;;;;;26.50;15.38;;;7.70;99.90;;;;;;4963861;28;20066;-77
2022/02/04 06:25:44;;;;;;;26.15;15.38;;;7.70;99.90;;;;;;4974242;28;20031;-77
2022/02/04 06:28:10;;;;;;;28.70;15.57;;;7.70;99.90;;;;;;4960128;28;20529;-77
2022/02/04 06:30:38;;;;;;;27.90;14.98;;;7.70;99.90;;;;;;4959875;28;20031;-77
2022/02/04 06:33:04;;;;;;;27.85;15.20;;;7.70;99.90;;;;;;4972770;28;20050;-77
2022/02/04 06:35:31;;;;;;;23.90;15.02;;;7.70;99.90;;;;;;4958860;28;20019;-77
2022/02/04 06:37:57;;;;;;;27.00;14.95;;;7.70;99.90;;;;;;4960009;28;20034;-77
2022/02/04 06:40:23;;;;;;;26.15;14.50;;;7.70;99.90;;;;;;4963252;28;20026;-77
2022/02/04 06:42:49;;;;;;;27.52;14.80;;;7.70;99.90;;;;;;4960111;28;20043;-77
2022/02/04 06:45:14;;;;;;;24.20;14.35;;;7.70;99.90;;;;;;4961155;28;20202;-77
2022/02/04 06:47:41;;;;;;;24.17;14.25;;;7.70;99.90;;;;;;4977881;28;20031;-77
2022/02/04 06:50:07;;;;;;;24.60;12.68;;;7.70;99.90;;;;;;4967147;28;20059;-80
2022/02/04 06:52:32;;;;;;;27.85;15.50;;;7.70;99.90;;;;;;4959092;28;20031;-80
2022/02/04 06:54:58;;;;;;;25.48;13.85;;;7.80;99.90;;;;;;4971746;28;20035;-82
2022/02/04 06:57:24;;;;;;;26.83;13.50;;;7.80;99.90;;;;;;4959474;28;20054;-82
2022/02/04 06:59:52;;;;;;;24.88;14.07;;;7.70;99.90;;;;;;4953358;28;20447;-77
2022/02/04 07:02:20;;;;;;;28.20;14.25;;;7.80;99.90;;;;;;4951624;28;20425;-78
2022/02/04 07:04:45;;;;;;;20.98;13.00;;;7.70;99.90;;;;;;4961247;28;20043;-78
2022/02/04 07:07:12;;;;;;;21.67;14.18;;;7.80;99.90;;;;;;4978395;28;20038;-77
2022/02/04 07:09:52;;;;;;;21.83;12.18;;;7.70;99.90;;;;;;4949148;29;20051;-77
2022/02/04 07:12:27;;;;;;;22.13;13.18;;;7.70;99.90;;;;;;4960839;28;20039;-78
2022/02/04 07:19:57;;;;;;;21.67;11.90;;;7.80;99.90;;;;;;4979592;28;20049;-77
2022/02/04 07:22:27;;;;;;;24.48;12.60;;;7.80;99.90;;;;;;4979859;28;20031;-77
2022/02/04 07:24:56;;;;;;;19.70;12.50;;;7.80;99.90;;;;;;4980578;28;20030;-77
2022/02/04 07:27:23;;;;;;;20.00;13.05;;;7.80;99.90;;;;;;4969997;28;20126;-78
2022/02/04 07:29:52;;;;;;;21.92;11.77;;;7.80;99.90;;;;;;4946824;28;20038;-77
2022/02/04 07:43:13;;;;;;;18.75;10.98;;;7.80;99.90;;;;;;4972643;28;20054;-78
2022/02/04 07:45:40;;;;;;;21.65;11.95;;;7.80;99.90;;;;;;4968250;28;20027;-78
2022/02/04 07:48:06;;;;;;;17.27;10.85;;;7.80;99.90;;;;;;4981794;28;20037;-78
2022/02/04 07:50:32;;;;;;;19.95;12.45;;;7.80;99.90;;;;;;4960428;28;20027;-77
2022/02/04 07:52:58;;;;;;;22.77;13.25;;;7.80;99.90;;;;;;4960603;28;20117;-77
2022/02/04 07:55:25;;;;;;;15.60;10.55;;;7.80;99.90;;;;;;4971995;28;20081;-77
2022/02/04 07:57:50;;;;;;;19.50;9.88;;;7.80;99.90;;;;;;4961432;28;20082;-78
2022/02/04 08:00:17;;;;;;;16.75;10.35;;;7.90;99.90;;;;;;4976268;28;20113;-77
2022/02/04 08:02:45;;;;;;;16.67;9.98;;;7.80;99.90;;;;;;4978016;28;20023;-77
2022/02/04 08:05:15;;;;;;;18.25;11.02;;;7.90;99.90;;;;;;4973365;28;20118;-77
2022/02/04 08:08:14;;;;;;;15.00;9.40;;;7.90;99.90;;;;;;4962461;28;20019;-77
2022/02/04 08:10:37;;;;;;;17.40;10.05;;;7.90;99.90;;;;;;4975569;28;20054;-77
2022/02/04 08:13:27;;;;;;;17.77;9.70;;;7.90;99.90;;;;;;4978472;28;20031;-77
2022/02/04 08:19:10;;;;;;;17.02;9.52;;;7.90;99.90;;;;;;4977771;28;20053;-78
2022/02/04 08:24:07;;;;;;;18.20;9.77;;;7.90;99.90;;;;;;4971566;28;20081;-78
2022/02/04 08:34:38;;;;;;;15.98;9.07;;;8.00;99.90;;;;;;4984009;28;20069;-78
2022/02/04 08:53:49;;;;;;;18.98;9.48;;;8.20;99.90;;;;;;4984288;28;20006;-77
2022/02/04 08:56:20;;;;;;;14.85;9.00;;;8.20;99.90;;;;;;4974973;28;20014;-77
2022/02/04 08:58:53;;;;;;;16.70;9.30;;;8.20;99.90;;;;;;4954794;28;20070;-77
2022/02/04 09:01:25;;;;;;;16.30;8.63;;;8.20;99.90;;;;;;4957915;28;20289;-78
2022/02/04 09:04:02;;;;;;;16.10;8.40;;;8.20;99.90;;;;;;4960227;28;20035;-77
2022/02/04 09:06:35;;;;;;;14.27;8.35;;;8.20;99.90;;;;;;4948951;28;20110;-77
2022/02/04 09:09:02;;;;;;;14.55;8.68;;;8.30;99.90;;;;;;4982291;28;20081;-77
2022/02/04 09:19:17;;;;;;;17.75;9.98;;;8.40;99.90;;;;;;4951122;28;20031;-77
2022/02/04 09:24:17;;;;;;;16.92;9.73;;;8.60;99.90;;;;;;4986585;28;20102;-77
2022/02/04 09:26:43;;;;;;;15.40;10.40;;;8.60;99.90;;;;;;4985114;28;20019;-77
2022/02/04 09:29:09;;;;;;;16.90;9.85;;;8.60;99.90;;;;;;4984838;28;20038;-76
2022/02/04 09:31:37;;;;;;;17.73;9.73;;;8.60;99.90;;;;;;4963520;28;20031;-76
2022/02/04 09:34:04;;;;;;;16.45;9.70;;;8.60;99.90;;;;;;4976241;28;20034;-76
2022/02/04 09:36:30;;;;;;;17.52;10.50;;;8.70;99.90;;;;;;4975643;28;20562;-77
2022/02/04 09:38:58;;;;;;;16.90;10.38;;;8.70;99.90;;;;;;4979816;28;20129;-76
2022/02/04 09:41:25;;;;;;;15.85;9.65;;;8.70;99.90;;;;;;4973431;28;20030;-76
2022/02/04 09:43:51;;;;;;;17.17;10.07;;;8.70;99.90;;;;;;4977998;28;20059;-76
2022/02/04 09:46:17;;;;;;;15.90;9.57;;;8.70;99.90;;;;;;4966058;28;20092;-76
2022/02/04 09:48:46;;;;;;;16.40;9.30;;;8.80;99.90;;;;;;4962097;28;20053;-76
2022/02/04 09:51:15;;;;;;;15.73;9.40;;;8.80;99.90;;;;;;4957267;28;20039;-76
2022/02/04 10:07:52;;;;;;;15.10;9.43;;;9.20;99.90;;;;;;4979281;28;20081;-76
2022/02/04 10:18:45;;;;;;;15.77;10.13;;;9.20;99.90;;;;;;4940571;29;20122;-76
2022/02/04 10:21:11;;;;;;;15.70;10.40;;;9.30;99.90;;;;;;4940878;29;20095;-76
2022/02/04 10:23:45;;;;;;;14.95;9.75;;;9.40;99.90;;;;;;4920694;29;20453;-76
2022/02/04 10:26:11;;;;;;;14.25;9.95;;;9.50;99.90;;;;;;4941629;29;20027;-76
2022/02/04 10:28:37;;;;;;;15.05;9.93;;;9.40;99.90;;;;;;4938037;29;20042;-76
2022/02/04 10:31:10;;;;;;;15.65;9.95;;;9.40;99.90;;;;;;4938191;29;20031;-76
2022/02/04 10:33:56;;;;;;;15.18;10.13;;;9.40;99.90;;;;;;4933998;29;20054;-76
2022/02/04 10:36:55;;;;;;;14.15;9.65;;;9.40;99.90;;;;;;4954442;29;20027;-76
2022/02/04 10:42:11;;;;;;;16.73;10.00;;;9.50;99.90;;;;;;4938793;29;20106;-76
2022/02/04 10:44:52;;;;;;;15.07;8.80;;;9.50;99.90;;;;;;4936119;29;20024;-76
2022/02/04 10:47:33;;;;;;;14.57;9.15;;;9.50;99.90;;;;;;4923649;29;20107;-76
2022/02/04 10:50:28;;;;;;;14.77;10.30;;;9.50;99.90;;;;;;4954885;29;20091;-76
2022/02/04 10:53:12;;;;;;;14.00;8.73;;;9.60;99.90;;;;;;4939731;29;20098;-76
2022/02/04 10:58:43;;;;;;;12.30;8.60;;;9.70;99.90;;;;;;4939965;29;20106;-77
2022/02/04 11:01:10;;;;;;;16.38;8.82;;;9.60;99.90;;;;;;4936510;29;20062;-76
2022/02/04 11:03:41;;;;;;;13.15;8.43;;;9.60;99.90;;;;;;4939034;29;20031;-76
2022/02/04 11:09:15;;;;;;;12.50;8.13;;;9.60;99.90;;;;;;4927356;29;20044;-76
2022/02/04 11:33:50;;;;;;;9.45;6.35;;;9.90;99.90;;;;;;4934657;29;20066;-76
2022/02/04 11:49:21;;;;;;;12.20;5.40;;;9.90;99.90;;;;;;4940851;29;20094;-76
2022/02/04 11:57:04;;;;;;;8.35;4.82;;;10.10;99.90;;;;;;4941983;29;20217;-76
2022/02/04 11:59:38;;;;;;;9.57;4.63;;;10.10;99.90;;;;;;4941364;29;20059;-76
2022/02/04 12:02:33;;;;;;;9.80;5.13;;;10.00;99.90;;;;;;4942863;29;20063;-76
2022/02/04 12:05:08;;;;;;;8.98;4.88;;;9.90;99.90;;;;;;4942983;29;20016;-76
2022/02/04 12:08:05;;;;;;;9.48;5.18;;;9.90;99.90;;;;;;4941588;29;20114;-76
2022/02/04 12:10:40;;;;;;;9.88;5.15;;;10.00;99.90;;;;;;4933595;29;20047;-76
2022/02/04 12:13:09;;;;;;;9.32;4.50;;;10.30;99.90;;;;;;4961772;29;20039;-76
2022/02/04 12:16:10;;;;;;;9.57;4.78;;;10.50;99.90;;;;;;4929132;28;20028;-76
2022/02/04 12:18:48;;;;;;;10.60;4.60;;;10.50;99.90;;;;;;4957288;28;20063;-76
2022/02/04 12:21:17;;;;;;;9.73;4.35;;;10.40;99.90;;;;;;4964895;28;20019;-76
2022/02/04 12:23:46;;;;;;;8.95;4.03;;;10.30;99.90;;;;;;4985093;28;20027;-76
2022/02/04 12:26:28;;;;;;;9.13;4.35;;;10.10;99.90;;;;;;4984878;28;20026;-76
2022/02/04 12:29:09;;;;;;;8.05;4.10;;;10.00;99.90;;;;;;4953552;28;20371;-77
2022/02/04 12:31:36;;;;;;;7.93;4.20;;;9.90;99.90;;;;;;4960760;28;20039;-78
2022/02/04 12:34:03;;;;;;;8.30;4.40;;;9.80;99.90;;;;;;4972900;28;20198;-76
2022/02/04 12:36:34;;;;;;;7.75;3.88;;;9.80;99.90;;;;;;4969408;28;20027;-76
2022/02/04 12:39:20;;;;;;;9.50;4.07;;;9.80;99.90;;;;;;4965462;28;20436;-76
2022/02/04 12:42:04;;;;;;;7.47;4.00;;;9.70;99.90;;;;;;4974861;28;20045;-77
2022/02/04 12:44:38;;;;;;;9.80;3.85;;;9.70;99.90;;;;;;4960112;28;20122;-77
2022/02/04 12:47:10;;;;;;;7.03;3.70;;;9.70;99.90;;;;;;4975656;28;20027;-76
2022/02/04 12:49:51;;;;;;;8.77;4.20;;;9.60;99.90;;;;;;4973432;28;20027;-81
2022/02/04 12:52:41;;;;;;;8.27;4.18;;;9.60;99.90;;;;;;4973428;28;20051;-77
2022/02/04 12:55:20;;;;;;;8.25;4.45;;;9.60;99.90;;;;;;4964189;28;20546;-76
2022/02/04 13:03:19;;;;;;;7.68;3.67;;;9.50;99.90;;;;;;4977582;28;20031;-76
2022/02/04 13:08:43;;;;;;;9.52;4.25;;;9.40;99.90;;;;;;4979049;28;20074;-76
2022/02/04 13:11:16;;;;;;;8.02;4.43;;;9.30;99.90;;;;;;4976510;28;20082;-77
2022/02/04 13:13:49;;;;;;;8.00;4.47;;;9.20;99.90;;;;;;4980447;28;20042;-77
2022/02/04 13:16:24;;;;;;;9.55;5.00;;;9.10;99.90;;;;;;4976361;28;20029;-77
2022/02/04 13:18:51;;;;;;;9.95;5.18;;;8.90;99.90;;;;;;4977997;28;20049;-77
2022/02/04 13:21:17;;;;;;;9.85;5.75;;;8.70;99.90;;;;;;4959626;28;20055;-78
2022/02/04 13:23:43;;;;;;;9.93;5.50;;;8.70;99.90;;;;;;4977403;28;20031;-78
2022/02/04 13:26:09;;;;;;;12.27;6.00;;;8.60;99.90;;;;;;4978840;28;20023;-78
2022/02/04 13:28:36;;;;;;;8.75;5.90;;;8.50;99.90;;;;;;4962880;28;20504;-78
2022/02/04 13:31:04;;;;;;;11.13;5.93;;;8.50;99.90;;;;;;4962663;28;20118;-78
2022/02/04 13:33:39;;;;;;;10.60;6.80;;;8.30;99.90;;;;;;4973124;28;20398;-78
2022/02/04 13:43:39;;;;;;;11.60;6.32;;;8.10;99.90;;;;;;4978240;28;20097;-78
2022/02/04 13:49:16;;;;;;;11.15;6.40;;;8.10;99.90;;;;;;4964972;28;20043;-78
2022/02/04 13:52:00;;;;;;;10.07;6.13;;;8.00;99.90;;;;;;4966563;28;20030;-78
2022/02/04 13:57:41;;;;;;;11.88;7.00;;;8.00;99.90;;;;;;4944151;28;20590;-78
2022/02/04 14:00:22;;;;;;;10.90;6.43;;;7.90;99.90;;;;;;4969182;28;20042;-78
2022/02/04 14:02:52;;;;;;;12.80;7.22;;;7.90;99.90;;;;;;4977803;28;20267;-79
2022/02/04 14:05:31;;;;;;;12.43;7.40;;;7.90;99.90;;;;;;4975239;28;20035;-78
2022/02/04 14:08:28;;;;;;;12.98;8.05;;;7.80;99.90;;;;;;4973276;28;20093;-77
2022/02/04 14:10:57;;;;;;;7.63;2.25;;;7.80;99.90;;;;;;4964545;28;20445;-82
2022/02/04 14:13:25;;;;;;;5.93;0.85;;;7.30;99.90;;;;;;4939741;29;20036;-78
2022/02/04 14:15:55;;;;;;;6.10;0.90;;;6.50;99.90;;;;;;4939247;29;20098;-78
2022/02/04 14:18:22;;;;;;;4.03;0.70;;;6.00;99.90;;;;;;4952508;29;20198;-78
2022/02/04 14:20:48;;;;;;;4.18;0.80;;;5.70;99.90;;;;;;4932324;29;20059;-79
2022/02/04 14:23:15;;;;;;;1.88;0.43;;;5.50;99.90;;;;;;4940100;29;20499;-79
2022/02/04 14:26:03;;;;;;;2.08;0.45;;;5.20;99.90;;;;;;4936710;29;20047;-78
2022/02/04 14:31:18;;;;;;;3.05;0.60;;;4.70;99.90;;;;;;4932748;29;20068;-78
2022/02/04 15:01:31;;;;;;;3.83;0.93;;;3.90;99.90;;;;;;4879174;29;20037;-78
2022/02/04 15:06:37;;;;;;;4.65;1.10;;;3.80;99.90;;;;;;4914004;29;20095;-79
2022/02/04 15:09:07;;;;;;;3.97;1.00;;;3.70;99.90;;;;;;4952043;29;20032;-80
2022/02/04 15:11:35;;;;;;;3.80;0.90;;;3.80;99.90;;;;;;4952488;28;20062;-79
2022/02/04 15:14:04;;;;;;;5.32;0.93;;;3.80;99.90;;;;;;4922940;29;20047;-79
2022/02/04 15:16:30;;;;;;;4.28;1.20;;;3.70;99.90;;;;;;4950276;29;20031;-78
2022/02/04 15:18:56;;;;;;;3.60;1.05;;;3.60;99.90;;;;;;4938356;29;20171;-79
2022/02/04 15:21:23;;;;;;;5.03;1.15;;;3.70;99.90;;;;;;4937243;29;20036;-80
2022/02/04 15:23:51;;;;;;;4.35;1.20;;;3.60;99.90;;;;;;4952598;29;20035;-80
2022/02/04 15:26:19;;;;;;;3.05;0.70;;;3.70;99.90;;;;;;4953391;29;20125;-79
2022/02/04 15:28:58;;;;;;;4.22;0.80;;;3.70;99.90;;;;;;4936124;29;20036;-79
2022/02/04 15:31:32;;;;;;;2.90;0.68;;;3.60;99.90;;;;;;4932071;29;20389;-79
2022/02/04 15:33:59;;;;;;;3.35;0.70;;;3.60;99.90;;;;;;4932001;29;20410;-79
2022/02/04 15:36:31;;;;;;;3.15;0.70;;;3.60;99.90;;;;;;4940991;29;20040;-79
2022/02/04 15:38:59;;;;;;;4.25;0.70;;;3.60;99.90;;;;;;4940406;29;20051;-79
2022/02/04 15:41:26;;;;;;;4.30;0.80;;;3.60;99.90;;;;;;4939299;29;20452;-79
2022/02/04 15:43:57;;;;;;;3.90;0.85;;;3.60;99.90;;;;;;4936138;29;20038;-79
2022/02/04 16:04:30;;;;;;;3.53;0.95;;;3.60;99.90;;;;;;4943722;29;20107;-79
2022/02/04 16:06:55;;;;;;;3.53;0.80;;;3.60;99.90;;;;;;4928623;29;20103;-79
2022/02/04 16:09:22;;;;;;;3.70;0.88;;;3.60;99.90;;;;;;4942675;29;20047;-79
2022/02/04 16:14:39;;;;;;;4.00;0.98;;;3.60;99.90;;;;;;4959364;28;20058;-79
2022/02/04 16:17:22;;;;;;;4.68;1.00;;;3.60;99.90;;;;;;4962768;28;20043;-79
2022/02/04 16:20:06;;;;;;;5.18;1.13;;;3.60;99.90;;;;;;4958768;28;20035;-79
2022/02/04 16:30:47;;;;;;;4.07;1.13;;;3.70;99.90;;;;;;4907035;29;20047;-78
2022/02/04 16:33:13;;;;;;;4.45;1.20;;;3.70;99.90;;;;;;4937463;28;20066;-79
2022/02/04 16:35:39;;;;;;;5.80;1.17;;;3.70;99.90;;;;;;4965179;28;20028;-79
2022/02/04 16:38:05;;;;;;;4.45;1.20;;;3.70;99.90;;;;;;4966486;28;20054;-79
2022/02/04 16:40:33;;;;;;;6.70;1.20;;;3.80;99.90;;;;;;4929204;29;20563;-79
2022/02/04 16:43:00;;;;;;;5.28;1.25;;;3.80;99.90;;;;;;4954385;29;20043;-79
2022/02/04 16:45:26;;;;;;;4.97;1.27;;;3.80;99.90;;;;;;4946330;29;20353;-78
2022/02/04 16:47:52;;;;;;;6.90;1.10;;;3.80;99.90;;;;;;4958372;28;20035;-79
2022/02/04 16:50:21;;;;;;;4.18;0.85;;;3.80;99.90;;;;;;4956202;28;20035;-79
2022/02/04 16:52:51;;;;;;;6.60;1.27;;;3.80;99.90;;;;;;4960070;28;20418;-79
2022/02/04 16:55:18;;;;;;;5.05;0.90;;;3.80;99.90;;;;;;4948061;28;20031;-79
2022/02/04 16:57:46;;;;;;;9.23;1.50;;;3.80;99.90;;;;;;4953491;29;20027;-79
2022/02/04 17:00:26;;;;;;;4.88;1.17;;;3.80;99.90;;;;;;4956494;28;20102;-79
2022/02/04 17:02:56;;;;;;;11.95;1.60;;;3.90;99.90;;;;;;4978627;28;20027;-78
2022/02/04 17:05:26;;;;;;;6.97;1.23;;;3.80;99.90;;;;;;4951209;29;20075;-79
2022/02/04 17:07:57;;;;;;;7.20;1.40;;;3.80;99.90;;;;;;4956346;28;20023;-79
2022/02/04 17:10:29;;;;;;;7.35;1.17;;;3.80;99.90;;;;;;4957453;28;20047;-78
2022/02/04 17:13:01;;;;;;;10.45;1.73;;;3.90;99.90;;;;;;4945581;28;20043;-79
2022/02/04 17:15:28;;;;;;;7.93;2.30;;;3.80;99.90;;;;;;4958817;28;20023;-78
2022/02/04 17:17:54;;;;;;;8.00;1.70;;;3.90;99.90;;;;;;4938528;28;20035;-79
2022/02/04 17:20:21;;;;;;;5.47;1.50;;;3.80;99.90;;;;;;4974163;28;20023;-79
2022/02/04 17:22:47;;;;;;;5.05;1.20;;;3.80;99.90;;;;;;4960786;28;20049;-79
2022/02/04 17:25:13;;;;;;;7.60;1.35;;;3.90;99.90;;;;;;4947454;28;20090;-79
2022/02/04 17:27:46;;;;;;;7.78;1.55;;;3.80;99.90;;;;;;4961523;28;20468;-79
2022/02/04 17:30:14;;;;;;;6.40;1.40;;;3.80;99.90;;;;;;4978394;28;20226;-79
2022/02/04 17:32:42;;;;;;;7.75;1.40;;;3.70;99.90;;;;;;4971991;28;20094;-79
2022/02/04 17:35:10;;;;;;;5.35;1.20;;;3.60;99.90;;;;;;4961676;28;20471;-79
2022/02/04 17:37:36;;;;;;;8.05;1.38;;;3.60;99.90;;;;;;4972563;28;20102;-79
2022/02/04 17:40:04;;;;;;;6.47;1.30;;;3.50;99.90;;;;;;4972786;28;20431;-80
2022/02/04 17:42:31;;;;;;;4.47;0.80;;;3.40;99.90;;;;;;4971184;28;20027;-79
2022/02/04 17:44:57;;;;;;;6.07;1.27;;;3.30;99.90;;;;;;4976450;28;20031;-79
2022/02/04 17:47:26;;;;;;;5.03;0.88;;;3.30;99.90;;;;;;4974670;28;20041;-79
2022/02/04 17:52:36;;;;;;;6.20;0.85;;;3.30;99.90;;;;;;4961719;28;20082;-81
2022/02/04 17:55:09;;;;;;;5.43;1.25;;;3.40;99.90;;;;;;4960672;28;20078;-80
2022/02/04 18:00:18;;;;;;;11.95;5.20;;;3.40;99.90;;;;;;4961444;28;20061;-88
2022/02/04 18:02:58;;;;;;;6.68;2.55;;;3.30;99.90;;;;;;4961515;28;20054;-86
2022/02/04 18:07:56;;;;;;;7.35;1.70;;;3.20;99.90;;;;;;4974057;28;20049;-87
2022/02/04 18:10:22;;;;;;;7.68;1.90;;;3.30;99.90;;;;;;4957440;28;20054;-83
2022/02/04 18:12:48;;;;;;;6.35;1.40;;;3.20;99.90;;;;;;4976954;28;20074;-80
2022/02/04 18:15:14;;;;;;;6.32;1.83;;;3.20;99.90;;;;;;4976263;28;20431;-80
2022/02/04 18:17:40;;;;;;;8.32;2.35;;;3.10;99.90;;;;;;4960551;28;20054;-80
2022/02/04 18:20:06;;;;;;;7.03;2.53;;;3.00;99.90;;;;;;4972148;28;20047;-80
2022/02/04 18:22:33;;;;;;;8.48;2.55;;;3.00;99.90;;;;;;4977844;28;20038;-80
2022/02/04 18:24:58;;;;;;;7.63;2.53;;;2.90;99.90;;;;;;4955950;28;20027;-80
2022/02/04 18:27:24;;;;;;;11.48;2.60;;;2.90;99.90;;;;;;4972054;28;20026;-79
2022/02/04 18:29:55;;;;;;;13.63;3.30;;;2.90;99.90;;;;;;4942160;28;20031;-80
2022/02/04 18:32:25;;;;;;;7.18;3.40;;;3.00;99.90;;;;;;4954496;28;20035;-80
2022/02/04 18:34:52;;;;;;;8.98;2.17;;;3.10;99.90;;;;;;4981828;28;20062;-80
2022/02/04 18:37:20;;;;;;;12.32;2.60;;;3.10;99.90;;;;;;4977012;28;20536;-80
2022/02/04 18:44:51;;;;;;;12.65;4.75;;;3.20;99.90;;;;;;4964487;28;20422;-80
2022/02/04 18:47:29;;;;;;;11.57;3.80;;;3.20;99.90;;;;;;4955481;28;20242;-79
2022/02/04 18:50:19;;;;;;;17.70;4.70;;;3.20;99.90;;;;;;4944800;28;20158;-80
2022/02/04 18:58:24;;;;;;;18.98;4.85;;;3.10;99.90;;;;;;4948297;28;20039;-78
2022/02/04 19:00:52;;;;;;;16.55;3.75;;;3.20;99.90;;;;;;4976568;28;20027;-78
2022/02/04 19:03:42;;;;;;;14.05;4.43;;;3.20;99.90;;;;;;4971925;28;20050;-78
2022/02/04 19:06:24;;;;;;;20.88;4.78;;;3.20;99.90;;;;;;4977534;28;20031;-78
2022/02/04 19:09:02;;;;;;;14.38;3.65;;;3.30;99.90;;;;;;4962868;28;20034;-78
2022/02/04 19:11:35;;;;;;;14.75;4.05;;;3.40;99.90;;;;;;4945543;28;20047;-78
2022/02/04 19:14:05;;;;;;;17.67;3.25;;;3.50;99.90;;;;;;4978471;28;20102;-78
2022/02/04 19:19:08;;;;;;;15.10;4.20;;;3.40;99.90;;;;;;4978043;28;20027;-78
2022/02/04 19:24:01;;;;;;;11.65;3.33;;;3.50;99.90;;;;;;4977091;28;20035;-78
2022/02/04 19:26:27;;;;;;;16.90;3.20;;;3.60;99.90;;;;;;4958877;28;20023;-78
2022/02/04 19:28:53;;;;;;;17.17;3.42;;;3.70;99.90;;;;;;4944409;28;20070;-78
2022/02/04 19:31:20;;;;;;;16.90;3.28;;;3.70;99.90;;;;;;4961799;28;20038;-78
2022/02/04 19:33:46;;;;;;;16.13;3.30;;;3.60;99.90;;;;;;4960938;28;20058;-78
2022/02/04 19:36:13;;;;;;;16.85;3.10;;;3.60;99.90;;;;;;4958605;28;20061;-77
2022/02/04 19:38:39;;;;;;;13.15;3.28;;;3.50;99.90;;;;;;4959372;28;20027;-77
2022/02/04 19:41:06;;;;;;;12.57;3.15;;;3.50;99.90;;;;;;4972407;28;20042;-78
2022/02/04 19:43:34;;;;;;;13.27;3.10;;;3.40;99.90;;;;;;4943434;28;20035;-78
2022/02/04 19:46:10;;;;;;;15.50;2.90;;;3.40;99.90;;;;;;4946041;28;20036;-78